Time;durP1;ratioP1;P1;durP2;ratioP2;P2;SDS_P1;SDS_P2;PMS_P1;PMS_P2;Temp;Humidity;BMP_temperature;BMP_pressure;BME280_temperature;BME280_humidity;BME280_pressure;Samples;Min_cycle;Max_cycle;Signal;HPM_P1;HPM_P2
2022/07/29 00:00:36;;;;;;;4.07;1.87;;;21.60;1.00;;;;;;5054228;28;20541;-76
2022/07/29 00:03:02;;;;;;;5.70;1.77;;;21.70;1.00;;;;;;5056201;28;20491;-76
2022/07/29 00:05:28;;;;;;;2.37;1.70;;;21.70;1.00;;;;;;5056117;28;20509;-76
2022/07/29 00:08:08;;;;;;;3.77;1.67;;;21.70;1.00;;;;;;5056155;28;20413;-77
2022/07/29 00:10:34;;;;;;;2.77;1.73;;;21.80;1.00;;;;;;5052156;28;20206;-77
2022/07/29 00:13:00;;;;;;;2.40;1.57;;;21.80;1.00;;;;;;5035885;28;20396;-77
2022/07/29 00:15:30;;;;;;;4.10;1.47;;;21.80;1.00;;;;;;5034556;28;20518;-77
2022/07/29 00:18:00;;;;;;;4.20;1.40;;;21.90;1.00;;;;;;5035519;28;20860;-77
2022/07/29 00:20:36;;;;;;;7.87;1.67;;;21.90;1.00;;;;;;5049715;28;20953;-77
2022/07/29 00:23:06;;;;;;;5.60;1.43;;;21.90;1.00;;;;;;5055802;28;20923;-77
2022/07/29 00:25:42;;;;;;;2.93;1.87;;;21.90;1.00;;;;;;5044561;28;20788;-77
2022/07/29 00:28:30;;;;;;;5.20;1.80;;;21.80;1.00;;;;;;5049171;28;20970;-77
2022/07/29 00:31:00;;;;;;;10.67;1.70;;;21.80;1.00;;;;;;5053364;28;20456;-77
2022/07/29 00:33:30;;;;;;;4.70;1.80;;;21.80;1.00;;;;;;5044410;28;20420;-77
2022/07/29 00:36:06;;;;;;;6.80;1.80;;;21.80;1.00;;;;;;5064307;28;20528;-77
2022/07/29 00:38:50;;;;;;;5.27;1.60;;;21.80;1.00;;;;;;5048788;28;20427;-77
2022/07/29 00:41:18;;;;;;;4.70;1.90;;;21.80;1.00;;;;;;5055261;28;20465;-77
2022/07/29 00:43:48;;;;;;;3.07;1.60;;;21.70;1.00;;;;;;5048035;28;20437;-77
2022/07/29 00:46:18;;;;;;;8.57;2.23;;;21.70;1.00;;;;;;5046056;28;20405;-77
2022/07/29 00:48:48;;;;;;;3.70;1.83;;;21.70;1.00;;;;;;5054608;28;20428;-77
2022/07/29 00:51:14;;;;;;;14.00;2.00;;;21.70;1.00;;;;;;5054684;28;20476;-77
2022/07/29 00:53:41;;;;;;;4.30;1.50;;;21.70;1.00;;;;;;5039807;28;20430;-78
2022/07/29 00:56:24;;;;;;;20.00;2.10;;;21.70;1.00;;;;;;5048734;28;20478;-77
2022/07/29 00:58:56;;;;;;;4.87;1.80;;;21.70;1.00;;;;;;5044881;28;20486;-77
2022/07/29 01:01:22;;;;;;;4.37;2.13;;;21.60;1.00;;;;;;5052946;28;20506;-77
2022/07/29 01:04:06;;;;;;;6.87;1.87;;;21.60;1.00;;;;;;5036475;28;20541;-77
2022/07/29 01:06:33;;;;;;;2.23;1.87;;;21.60;1.00;;;;;;5037079;28;20182;-77
2022/07/29 01:09:02;;;;;;;3.30;1.90;;;21.50;1.00;;;;;;5045011;28;20509;-76
2022/07/29 01:11:31;;;;;;;3.83;2.20;;;21.50;1.00;;;;;;5052987;28;20500;-76
2022/07/29 01:14:01;;;;;;;3.67;1.93;;;21.50;1.00;;;;;;5043875;28;20452;-77
2022/07/29 01:16:46;;;;;;;7.27;1.80;;;21.40;1.00;;;;;;5034732;28;20420;-76
2022/07/29 01:19:47;;;;;;;5.10;2.20;;;21.40;1.00;;;;;;5048004;28;20391;-76
2022/07/29 01:22:34;;;;;;;2.80;1.60;;;21.40;1.00;;;;;;5039499;28;20523;-76
2022/07/29 01:25:16;;;;;;;6.83;1.90;;;21.30;1.00;;;;;;5048007;28;20413;-76
2022/07/29 01:28:01;;;;;;;7.43;2.00;;;21.30;1.00;;;;;;5038606;28;20429;-76
2022/07/29 01:30:29;;;;;;;5.27;1.97;;;21.30;1.00;;;;;;5043238;28;20499;-76
2022/07/29 01:33:01;;;;;;;9.30;1.73;;;21.30;1.00;;;;;;5049243;28;20440;-76
2022/07/29 01:35:41;;;;;;;3.03;1.83;;;21.20;1.00;;;;;;5042360;28;20438;-76
2022/07/29 01:38:20;;;;;;;5.90;2.33;;;21.30;1.00;;;;;;5046015;28;20519;-77
2022/07/29 01:40:54;;;;;;;4.57;1.90;;;21.20;1.00;;;;;;5051501;28;20435;-77
2022/07/29 01:43:35;;;;;;;8.43;1.93;;;21.30;1.00;;;;;;5053769;28;20538;-77
2022/07/29 01:46:30;;;;;;;9.53;2.80;;;21.20;1.00;;;;;;5051185;28;20524;-77
2022/07/29 01:49:06;;;;;;;7.27;2.40;;;21.20;1.00;;;;;;5047540;28;20478;-77
2022/07/29 01:51:39;;;;;;;6.23;1.83;;;21.30;1.00;;;;;;5053367;28;20490;-77
2022/07/29 01:54:48;;;;;;;9.10;1.77;;;21.20;1.00;;;;;;5039843;28;20456;-76
2022/07/29 01:57:19;;;;;;;8.37;2.47;;;21.20;1.00;;;;;;5052568;28;20427;-76
2022/07/29 01:59:48;;;;;;;4.33;1.87;;;21.20;1.00;;;;;;5039624;28;20419;-76
2022/07/29 02:02:16;;;;;;;3.53;1.87;;;21.30;1.00;;;;;;5045574;28;20532;-76
2022/07/29 02:04:48;;;;;;;6.30;2.20;;;21.20;1.00;;;;;;5043716;28;20409;-76
2022/07/29 02:07:17;;;;;;;6.97;2.23;;;21.20;1.00;;;;;;5053415;28;20428;-76
2022/07/29 02:09:45;;;;;;;3.57;2.23;;;21.20;1.00;;;;;;5047284;28;20476;-77
2022/07/29 02:12:14;;;;;;;6.10;1.90;;;21.20;1.00;;;;;;5034248;28;20431;-77
2022/07/29 02:14:56;;;;;;;6.17;2.33;;;21.20;1.00;;;;;;5045344;28;20956;-78
2022/07/29 02:17:26;;;;;;;9.97;1.93;;;21.10;1.00;;;;;;5052606;28;20432;-77
2022/07/29 02:20:03;;;;;;;7.43;2.40;;;21.10;1.00;;;;;;5053607;28;20952;-76
2022/07/29 02:22:33;;;;;;;2.17;2.00;;;21.10;1.00;;;;;;5053835;28;20397;-77
2022/07/29 02:25:00;;;;;;;8.23;2.20;;;21.10;1.00;;;;;;5045914;28;20518;-76
2022/07/29 02:27:39;;;;;;;2.87;2.00;;;21.10;1.00;;;;;;5048748;28;20486;-76
2022/07/29 02:30:07;;;;;;;6.00;2.10;;;21.00;1.00;;;;;;5051894;28;20436;-76
2022/07/29 02:32:45;;;;;;;8.23;2.10;;;21.10;1.00;;;;;;5034055;28;20429;-76
2022/07/29 02:35:13;;;;;;;6.70;2.70;;;21.00;1.00;;;;;;5047853;28;20431;-76
2022/07/29 02:37:45;;;;;;;3.90;2.30;;;21.00;1.00;;;;;;5047031;28;20448;-76
2022/07/29 02:40:14;;;;;;;5.80;2.47;;;21.00;1.00;;;;;;5046788;28;20459;-77
2022/07/29 02:42:55;;;;;;;3.40;2.00;;;21.00;1.00;;;;;;5052834;28;20962;-77
2022/07/29 02:45:25;;;;;;;6.80;2.50;;;21.00;1.00;;;;;;5052946;28;20450;-77
2022/07/29 02:48:14;;;;;;;2.87;2.13;;;21.00;1.00;;;;;;5043160;28;20895;-77
2022/07/29 02:50:57;;;;;;;2.50;2.07;;;21.00;1.00;;;;;;5043763;28;20826;-77
2022/07/29 02:53:26;;;;;;;2.53;2.20;;;21.00;1.00;;;;;;5051540;28;20436;-76
2022/07/29 02:56:24;;;;;;;5.50;2.40;;;21.00;1.00;;;;;;5034964;28;20432;-76
2022/07/29 03:02:14;;;;;;;5.97;1.80;;;21.00;1.00;;;;;;4953266;28;20476;-76
2022/07/29 03:04:43;;;;;;;5.40;2.23;;;21.00;1.00;;;;;;4982569;28;20434;-76
2022/07/29 03:07:15;;;;;;;3.57;2.30;;;21.00;1.00;;;;;;4967054;28;20429;-76
2022/07/29 03:09:50;;;;;;;8.87;2.27;;;20.90;1.00;;;;;;4977558;28;20435;-77
2022/07/29 03:12:19;;;;;;;4.93;2.53;;;21.00;1.00;;;;;;4981163;28;20565;-77
2022/07/29 03:14:48;;;;;;;7.27;2.90;;;20.90;1.00;;;;;;4991247;28;20430;-77
2022/07/29 03:17:20;;;;;;;7.60;2.40;;;20.80;1.00;;;;;;4987642;28;20437;-77
2022/07/29 03:19:46;;;;;;;5.20;2.60;;;20.80;1.00;;;;;;4970284;28;20443;-77
2022/07/29 03:22:19;;;;;;;4.73;2.37;;;20.70;1.00;;;;;;4972445;28;20938;-77
2022/07/29 03:24:54;;;;;;;5.83;2.47;;;20.70;1.00;;;;;;4982955;28;20892;-76
2022/07/29 03:27:25;;;;;;;3.47;2.60;;;20.60;1.00;;;;;;4945023;28;20409;-76
2022/07/29 03:29:54;;;;;;;8.00;2.67;;;20.60;1.00;;;;;;4984710;28;20444;-76
2022/07/29 03:32:49;;;;;;;5.57;2.57;;;20.50;1.00;;;;;;4975862;28;20492;-76
2022/07/29 03:35:19;;;;;;;4.77;2.63;;;20.50;1.00;;;;;;5019418;28;20435;-76
2022/07/29 03:37:54;;;;;;;5.37;2.70;;;20.40;1.00;;;;;;5044531;28;20429;-76
2022/07/29 03:40:50;;;;;;;5.10;2.60;;;20.40;1.00;;;;;;5046110;28;20922;-76
2022/07/29 03:43:27;;;;;;;10.50;2.50;;;20.30;1.00;;;;;;5012329;28;20507;-76
2022/07/29 03:46:09;;;;;;;4.30;2.53;;;20.30;1.00;;;;;;5026736;28;20431;-76
2022/07/29 03:48:36;;;;;;;3.50;2.43;;;20.20;1.00;;;;;;5026208;28;20432;-76
2022/07/29 03:51:02;;;;;;;5.87;3.17;;;20.20;1.00;;;;;;5019753;28;20463;-76
2022/07/29 03:53:42;;;;;;;11.67;3.17;;;20.10;1.00;;;;;;5028550;28;20462;-76
2022/07/29 03:56:16;;;;;;;5.77;2.60;;;20.00;1.00;;;;;;5014234;28;20403;-76
2022/07/29 03:58:44;;;;;;;7.53;2.30;;;19.90;1.00;;;;;;5014331;28;20448;-76
2022/07/29 04:01:11;;;;;;;8.80;2.93;;;19.80;1.00;;;;;;5021546;28;20514;-76
2022/07/29 04:03:37;;;;;;;14.20;3.23;;;19.80;1.00;;;;;;5014695;28;20497;-76
2022/07/29 04:06:12;;;;;;;10.40;2.50;;;19.70;1.00;;;;;;5017085;28;20993;-77
2022/07/29 04:08:49;;;;;;;7.70;3.20;;;19.60;1.00;;;;;;5021475;28;20581;-76
2022/07/29 04:11:19;;;;;;;5.97;2.90;;;19.50;1.00;;;;;;5020249;28;20471;-77
2022/07/29 04:13:45;;;;;;;9.63;2.40;;;19.50;1.00;;;;;;5021208;28;20498;-77
2022/07/29 04:16:10;;;;;;;11.40;3.10;;;19.40;1.00;;;;;;5013695;28;20791;-77
2022/07/29 04:18:42;;;;;;;9.47;3.00;;;19.30;1.00;;;;;;5013787;28;20200;-77
2022/07/29 04:21:12;;;;;;;11.23;2.90;;;19.20;1.00;;;;;;5047760;28;20196;-77
2022/07/29 04:23:51;;;;;;;9.07;3.20;;;19.20;1.00;;;;;;5040508;28;20410;-77
2022/07/29 04:26:31;;;;;;;7.27;2.60;;;19.20;1.00;;;;;;5045384;28;20425;-77
2022/07/29 04:29:06;;;;;;;4.57;2.87;;;19.10;1.00;;;;;;5049124;28;20908;-77
2022/07/29 04:31:37;;;;;;;8.13;2.50;;;19.00;1.00;;;;;;5047538;28;20579;-77
2022/07/29 04:34:13;;;;;;;8.13;3.00;;;19.00;1.00;;;;;;5057818;28;20883;-77
2022/07/29 04:36:38;;;;;;;10.83;2.80;;;19.00;1.00;;;;;;5054617;28;20395;-77
2022/07/29 04:39:13;;;;;;;14.73;3.10;;;18.90;1.00;;;;;;5050078;28;20427;-76
2022/07/29 04:41:55;;;;;;;4.00;3.03;;;18.90;1.00;;;;;;5054998;28;20177;-77
2022/07/29 04:44:25;;;;;;;5.13;2.37;;;18.90;1.00;;;;;;5044134;28;20410;-77
2022/07/29 04:47:12;;;;;;;6.67;3.30;;;18.90;1.00;;;;;;5040203;28;20426;-77
2022/07/29 04:49:42;;;;;;;12.33;2.93;;;18.90;1.00;;;;;;5054741;28;20439;-77
2022/07/29 04:52:08;;;;;;;7.40;2.70;;;18.90;1.00;;;;;;5048658;28;20480;-76
2022/07/29 04:54:37;;;;;;;13.90;2.80;;;18.90;1.00;;;;;;5051660;28;20414;-76
2022/07/29 04:57:02;;;;;;;7.70;3.30;;;18.90;1.00;;;;;;5046636;28;20249;-76
2022/07/29 04:59:28;;;;;;;5.30;2.70;;;18.90;1.00;;;;;;5053288;28;20439;-75
2022/07/29 05:01:54;;;;;;;11.03;3.30;;;18.90;1.00;;;;;;5054841;28;20163;-76
2022/07/29 05:04:30;;;;;;;5.33;2.70;;;19.00;1.00;;;;;;5039985;28;20184;-76
2022/07/29 05:07:12;;;;;;;9.07;3.00;;;19.00;1.00;;;;;;5047755;28;20773;-76
2022/07/29 05:09:39;;;;;;;7.50;2.60;;;19.10;1.00;;;;;;5045580;28;20417;-76
2022/07/29 05:12:07;;;;;;;4.73;2.50;;;19.10;1.00;;;;;;5048926;28;20528;-75
2022/07/29 05:14:33;;;;;;;8.47;3.30;;;19.10;1.00;;;;;;5054623;28;20752;-76
2022/07/29 05:17:00;;;;;;;3.47;2.50;;;19.10;1.00;;;;;;5041505;28;20424;-76
2022/07/29 05:19:37;;;;;;;7.93;2.50;;;19.20;1.00;;;;;;5054724;28;20197;-76
2022/07/29 05:22:06;;;;;;;15.17;3.30;;;19.30;1.00;;;;;;5054620;28;20920;-75
2022/07/29 05:24:37;;;;;;;10.10;2.80;;;19.40;1.00;;;;;;5047310;28;20418;-76
2022/07/29 05:27:13;;;;;;;7.73;2.90;;;19.40;1.00;;;;;;5048255;28;20881;-76
2022/07/29 05:29:39;;;;;;;8.73;2.50;;;19.50;1.00;;;;;;5048023;28;20461;-76
2022/07/29 05:32:05;;;;;;;4.70;2.23;;;19.50;1.00;;;;;;5053699;28;20471;-76
2022/07/29 05:34:31;;;;;;;9.67;2.50;;;19.60;1.00;;;;;;5052025;28;20190;-76
2022/07/29 05:36:57;;;;;;;7.23;2.60;;;19.60;1.00;;;;;;5034502;28;20398;-75
2022/07/29 05:39:54;;;;;;;4.73;2.63;;;19.70;1.00;;;;;;5035086;28;20406;-76
2022/07/29 05:42:25;;;;;;;14.90;3.20;;;19.80;1.00;;;;;;5042758;28;20451;-75
2022/07/29 05:45:12;;;;;;;5.53;2.80;;;19.90;1.00;;;;;;5037554;28;20422;-75
2022/07/29 05:47:48;;;;;;;12.70;3.07;;;19.90;1.00;;;;;;5047649;28;20414;-76
2022/07/29 05:50:25;;;;;;;9.13;2.60;;;20.00;1.00;;;;;;5047508;28;20435;-76
2022/07/29 05:52:50;;;;;;;9.57;2.00;;;20.10;1.00;;;;;;5051661;28;20465;-75
2022/07/29 05:55:16;;;;;;;10.63;2.53;;;20.10;1.00;;;;;;5038433;28;20423;-76
2022/07/29 05:57:44;;;;;;;8.63;2.70;;;20.30;1.00;;;;;;5046406;28;20192;-75
2022/07/29 06:00:10;;;;;;;3.53;2.10;;;20.30;1.00;;;;;;5052556;28;20234;-76
2022/07/29 06:02:36;;;;;;;6.37;2.40;;;20.40;1.00;;;;;;5049357;28;20450;-77
2022/07/29 06:05:07;;;;;;;4.87;2.50;;;20.50;1.00;;;;;;5045241;28;21303;-76
2022/07/29 06:07:36;;;;;;;8.87;2.17;;;20.70;1.00;;;;;;5048401;28;20246;-76
2022/07/29 06:10:13;;;;;;;4.47;2.70;;;20.70;1.00;;;;;;5050880;28;20475;-79
2022/07/29 06:12:43;;;;;;;8.50;2.67;;;20.80;1.00;;;;;;5033981;28;20404;-76
2022/07/29 06:15:12;;;;;;;5.93;2.23;;;20.90;1.00;;;;;;5052071;28;20450;-76
2022/07/29 06:18:00;;;;;;;15.00;2.60;;;21.00;1.00;;;;;;5054134;28;20428;-76
2022/07/29 06:20:29;;;;;;;17.93;2.80;;;21.10;1.00;;;;;;5051489;28;20437;-76
2022/07/29 06:22:54;;;;;;;4.13;2.53;;;21.20;1.00;;;;;;5052179;28;20419;-75
2022/07/29 06:25:34;;;;;;;4.53;2.03;;;21.30;1.00;;;;;;5052041;28;20498;-80
2022/07/29 06:28:13;;;;;;;10.60;2.53;;;21.40;1.00;;;;;;5053456;28;20153;-80
2022/07/29 06:30:49;;;;;;;11.07;2.80;;;21.50;1.00;;;;;;5052990;28;20449;-80
2022/07/29 06:33:31;;;;;;;8.20;2.33;;;21.60;1.00;;;;;;5053085;28;20466;-80
2022/07/29 06:36:09;;;;;;;6.17;2.40;;;21.70;1.00;;;;;;5053609;28;20428;-80
2022/07/29 06:38:47;;;;;;;23.10;3.00;;;21.80;1.00;;;;;;5033741;28;20397;-81
2022/07/29 06:41:25;;;;;;;11.33;2.70;;;21.90;1.00;;;;;;5035001;28;20428;-75
2022/07/29 06:43:51;;;;;;;11.30;2.63;;;22.00;1.00;;;;;;5053327;28;20938;-75
2022/07/29 06:46:19;;;;;;;6.70;2.67;;;22.20;1.00;;;;;;5047495;28;20520;-75
2022/07/29 06:48:47;;;;;;;10.33;3.30;;;22.30;1.00;;;;;;5048657;28;20519;-75
2022/07/29 06:51:13;;;;;;;4.40;2.10;;;22.40;1.00;;;;;;5052816;28;20453;-75
2022/07/29 06:53:43;;;;;;;9.30;2.60;;;22.50;1.00;;;;;;5049400;28;20448;-75
2022/07/29 06:56:18;;;;;;;5.93;2.50;;;22.60;1.00;;;;;;5050405;28;20425;-80
2022/07/29 06:59:24;;;;;;;8.13;2.80;;;22.70;1.00;;;;;;5040864;28;20871;-80
2022/07/29 07:01:50;;;;;;;7.63;3.17;;;22.90;1.00;;;;;;5034237;28;20395;-80
2022/07/29 07:04:15;;;;;;;8.10;2.60;;;23.00;1.00;;;;;;5046886;28;20426;-80
2022/07/29 07:06:42;;;;;;;9.20;2.50;;;23.10;1.00;;;;;;5055716;28;20172;-80
2022/07/29 07:09:19;;;;;;;3.53;2.23;;;23.30;1.00;;;;;;5040783;28;20739;-79
2022/07/29 07:11:49;;;;;;;17.70;2.40;;;23.30;1.00;;;;;;5037996;28;20564;-75
2022/07/29 07:14:14;;;;;;;9.13;2.83;;;23.40;1.00;;;;;;5043289;28;20415;-74
2022/07/29 07:16:43;;;;;;;4.97;2.70;;;23.40;1.00;;;;;;5038758;28;20436;-75
2022/07/29 07:19:12;;;;;;;9.90;2.70;;;23.60;1.00;;;;;;5054038;28;20183;-80
2022/07/29 07:21:42;;;;;;;6.00;2.30;;;23.70;1.00;;;;;;5054193;28;20886;-76
2022/07/29 07:24:13;;;;;;;19.67;2.40;;;23.70;1.00;;;;;;5056297;28;20817;-76
2022/07/29 07:26:43;;;;;;;9.13;2.70;;;23.80;1.00;;;;;;5056732;28;20831;-77
2022/07/29 07:29:12;;;;;;;6.37;2.40;;;24.00;1.00;;;;;;5056241;28;21089;-76
2022/07/29 07:35:13;;;;;;;9.70;2.50;;;24.20;1.00;;;;;;5052948;28;20422;-87
2022/07/29 07:37:42;;;;;;;3.63;2.30;;;24.40;1.00;;;;;;5056880;28;20415;-87
2022/07/29 07:40:13;;;;;;;8.03;2.50;;;24.50;1.00;;;;;;5056861;28;20420;-88
2022/07/29 07:42:42;;;;;;;7.40;2.50;;;24.60;1.00;;;;;;5056201;28;20423;-88
2022/07/29 07:46:00;;;;;;;8.47;2.43;;;24.60;1.00;;;;;;5055008;28;20424;-87
2022/07/29 07:48:42;;;;;;;20.97;2.53;;;24.70;1.00;;;;;;5057069;28;20392;-88
2022/07/29 07:51:13;;;;;;;5.53;2.63;;;24.80;1.00;;;;;;5055272;28;20817;-87
2022/07/29 07:53:44;;;;;;;2.93;2.40;;;24.80;1.00;;;;;;5056690;28;20539;-88
2022/07/29 07:56:10;;;;;;;9.47;2.50;;;24.90;1.00;;;;;;5049073;28;21018;-81
2022/07/29 07:58:43;;;;;;;6.67;2.17;;;25.10;1.00;;;;;;5055955;28;20761;-80
2022/07/29 08:01:13;;;;;;;7.67;2.70;;;25.20;1.00;;;;;;5049573;28;20436;-78
2022/07/29 08:03:39;;;;;;;12.33;2.40;;;25.30;1.00;;;;;;5055557;28;20430;-78
2022/07/29 08:06:19;;;;;;;7.23;2.30;;;25.40;1.00;;;;;;5035871;28;20883;-80
2022/07/29 08:09:01;;;;;;;3.40;2.47;;;25.50;1.00;;;;;;5036849;28;20308;-81
2022/07/29 08:11:29;;;;;;;5.83;2.63;;;25.60;1.00;;;;;;5038256;28;20451;-76
2022/07/29 08:13:55;;;;;;;4.70;2.57;;;25.70;1.00;;;;;;5047043;28;20447;-89
2022/07/29 08:17:12;;;;;;;9.63;3.00;;;25.90;1.00;;;;;;5042647;28;20423;-89
2022/07/29 08:20:12;;;;;;;6.83;2.30;;;26.00;1.00;;;;;;5053557;28;20942;-88
2022/07/29 08:22:38;;;;;;;4.73;2.50;;;26.10;1.00;;;;;;5064260;28;20432;-80
2022/07/29 08:25:07;;;;;;;5.93;2.60;;;26.10;1.00;;;;;;5048640;28;20459;-77
2022/07/29 08:27:36;;;;;;;3.80;2.27;;;26.10;1.00;;;;;;5050702;28;20180;-77
2022/07/29 08:30:14;;;;;;;4.83;2.53;;;26.20;1.00;;;;;;5049390;28;20944;-76
2022/07/29 08:32:39;;;;;;;3.53;2.27;;;26.30;1.00;;;;;;5054289;28;20928;-76
2022/07/29 08:35:05;;;;;;;4.60;2.93;;;26.20;1.00;;;;;;5054192;28;20420;-76
2022/07/29 08:37:31;;;;;;;8.80;2.17;;;26.30;1.00;;;;;;5043209;28;20221;-76
2022/07/29 08:39:56;;;;;;;5.00;2.27;;;26.30;1.00;;;;;;5050602;28;20589;-76
2022/07/29 08:42:22;;;;;;;8.80;2.30;;;26.50;1.00;;;;;;5054135;28;20355;-77
2022/07/29 08:44:48;;;;;;;6.70;2.80;;;26.70;1.00;;;;;;5054195;28;20257;-78
2022/07/29 08:47:14;;;;;;;6.80;2.57;;;26.80;1.00;;;;;;5051380;28;20182;-77
2022/07/29 08:49:40;;;;;;;2.80;2.57;;;26.90;1.00;;;;;;5052174;28;20446;-77
2022/07/29 08:52:06;;;;;;;4.67;2.33;;;26.90;1.00;;;;;;5043292;28;20851;-77
2022/07/29 08:54:33;;;;;;;6.93;3.07;;;27.00;1.00;;;;;;5040839;28;20669;-78
2022/07/29 08:57:00;;;;;;;6.97;2.53;;;27.10;1.00;;;;;;5054173;28;20416;-77
2022/07/29 08:59:27;;;;;;;4.37;2.67;;;27.20;1.00;;;;;;5054047;28;20417;-77
2022/07/29 09:01:54;;;;;;;6.50;2.60;;;27.20;1.00;;;;;;5054002;28;20423;-77
2022/07/29 09:04:20;;;;;;;4.67;2.37;;;27.20;1.00;;;;;;5053198;28;20846;-77
2022/07/29 09:06:49;;;;;;;5.47;2.30;;;27.30;1.00;;;;;;5053656;28;20419;-77
2022/07/29 09:09:15;;;;;;;7.30;2.77;;;27.40;1.00;;;;;;5053668;28;20431;-77
2022/07/29 09:11:44;;;;;;;8.63;2.70;;;27.50;1.00;;;;;;5041370;28;20466;-77
2022/07/29 09:14:12;;;;;;;6.80;2.37;;;27.60;1.00;;;;;;5039975;28;20460;-77
2022/07/29 09:16:46;;;;;;;4.23;2.50;;;27.80;1.00;;;;;;5058482;28;20416;-78
2022/07/29 09:19:33;;;;;;;7.33;2.90;;;27.80;1.00;;;;;;5042107;28;20503;-78
2022/07/29 09:22:01;;;;;;;11.40;2.90;;;28.00;1.00;;;;;;5039959;28;20461;-77
2022/07/29 09:24:47;;;;;;;10.80;2.50;;;28.10;1.00;;;;;;5053780;28;20963;-78
2022/07/29 09:27:26;;;;;;;9.07;2.83;;;28.20;1.00;;;;;;5053014;28;20417;-77
2022/07/29 09:30:12;;;;;;;8.40;2.80;;;28.20;1.00;;;;;;5053470;28;20413;-77
2022/07/29 09:32:58;;;;;;;4.93;2.60;;;28.20;1.00;;;;;;5053472;28;20459;-77
2022/07/29 09:35:25;;;;;;;8.47;2.80;;;28.50;1.00;;;;;;5053732;28;20900;-77
2022/07/29 09:37:51;;;;;;;4.40;2.70;;;28.70;1.00;;;;;;5052577;28;20470;-77
2022/07/29 09:40:26;;;;;;;4.50;2.70;;;28.80;1.00;;;;;;5053497;28;20818;-77
2022/07/29 09:42:56;;;;;;;2.43;2.23;;;28.90;1.00;;;;;;5053547;28;20408;-77
2022/07/29 09:45:32;;;;;;;4.83;2.70;;;29.00;1.00;;;;;;5052547;28;20783;-78
2022/07/29 09:48:03;;;;;;;12.07;3.03;;;29.00;1.00;;;;;;5053281;28;20491;-78
2022/07/29 09:50:41;;;;;;;8.23;2.20;;;29.00;1.00;;;;;;5044344;28;20848;-78
2022/07/29 09:53:09;;;;;;;6.10;2.90;;;29.10;1.00;;;;;;5039514;28;20432;-78
2022/07/29 09:55:50;;;;;;;8.23;2.87;;;29.10;1.00;;;;;;5051849;28;20480;-78
2022/07/29 09:58:20;;;;;;;4.27;2.73;;;29.10;1.00;;;;;;5039714;28;20508;-77
2022/07/29 10:00:47;;;;;;;18.13;3.03;;;29.10;1.00;;;;;;5038954;28;20987;-74
2022/07/29 10:03:15;;;;;;;2.90;2.60;;;29.20;1.00;;;;;;5041797;28;20453;-73
2022/07/29 10:05:41;;;;;;;3.23;2.40;;;29.30;1.00;;;;;;5047667;28;20425;-76
2022/07/29 10:08:13;;;;;;;3.37;2.50;;;29.40;1.00;;;;;;5045924;28;20429;-77
2022/07/29 10:10:43;;;;;;;8.90;3.07;;;29.50;1.00;;;;;;5041774;28;20539;-74
2022/07/29 10:13:14;;;;;;;4.83;3.03;;;29.60;1.00;;;;;;5047404;28;20428;-79
2022/07/29 10:16:18;;;;;;;3.43;2.40;;;29.70;1.00;;;;;;5042854;28;20435;-79
2022/07/29 10:18:50;;;;;;;4.83;2.80;;;29.90;1.00;;;;;;5037198;28;20841;-79
2022/07/29 10:21:32;;;;;;;4.13;2.40;;;30.10;1.00;;;;;;5041050;28;20431;-78
2022/07/29 10:24:08;;;;;;;10.30;2.87;;;30.20;1.00;;;;;;5042939;28;20455;-77
2022/07/29 10:26:49;;;;;;;3.20;2.30;;;30.10;1.00;;;;;;5053617;28;20402;-77
2022/07/29 10:29:15;;;;;;;4.03;2.60;;;30.40;1.00;;;;;;5040850;28;20932;-74
2022/07/29 10:32:06;;;;;;;6.47;2.57;;;30.60;1.00;;;;;;5040263;28;20460;-74
2022/07/29 10:35:06;;;;;;;4.13;2.67;;;30.70;1.00;;;;;;5044051;28;20694;-74
2022/07/29 10:37:55;;;;;;;8.53;2.67;;;30.70;1.00;;;;;;4986297;28;20432;-79
2022/07/29 10:43:29;;;;;;;3.17;2.43;;;30.80;1.00;;;;;;4999264;28;20482;-79
2022/07/29 10:45:57;;;;;;;6.80;2.53;;;30.90;1.00;;;;;;4998515;28;20484;-78
2022/07/29 10:49:00;;;;;;;5.77;2.60;;;30.90;1.00;;;;;;4996253;28;20838;-79
2022/07/29 10:52:07;;;;;;;2.33;2.13;;;30.90;1.00;;;;;;5000584;28;21001;-79
2022/07/29 10:54:55;;;;;;;3.10;2.60;;;30.90;1.00;;;;;;4940396;29;20974;-79
2022/07/29 10:57:32;;;;;;;7.67;2.73;;;31.10;1.00;;;;;;4902461;29;20798;-78
2022/07/29 11:00:14;;;;;;;4.07;2.90;;;31.30;1.00;;;;;;4920737;29;20424;-80
2022/07/29 11:02:44;;;;;;;3.63;2.30;;;31.30;1.00;;;;;;4929867;29;20472;-80
2022/07/29 11:05:19;;;;;;;9.47;3.03;;;31.20;1.00;;;;;;4920769;29;20804;-78
2022/07/29 11:08:36;;;;;;;4.63;2.47;;;31.30;1.00;;;;;;4921549;29;20563;-78
2022/07/29 11:11:24;;;;;;;2.90;2.63;;;31.30;1.00;;;;;;4938909;29;21051;-78
2022/07/29 11:13:51;;;;;;;4.70;2.90;;;31.30;1.00;;;;;;4930171;28;20512;-77
2022/07/29 11:16:58;;;;;;;5.60;2.53;;;31.30;1.00;;;;;;4978790;28;20417;-76
2022/07/29 11:19:25;;;;;;;6.53;2.90;;;31.40;1.00;;;;;;4981681;28;20433;-77
2022/07/29 11:21:55;;;;;;;5.20;2.80;;;31.10;1.00;;;;;;4979084;28;20401;-76
2022/07/29 11:24:28;;;;;;;3.60;2.67;;;31.10;1.00;;;;;;4978830;28;20564;-76
2022/07/29 11:27:20;;;;;;;5.27;3.03;;;31.30;1.00;;;;;;4978762;28;20913;-76
2022/07/29 11:29:52;;;;;;;8.40;2.67;;;31.40;1.00;;;;;;4968478;28;20432;-76
2022/07/29 11:32:19;;;;;;;4.27;2.97;;;31.60;1.00;;;;;;5049420;28;21038;-77
2022/07/29 11:34:50;;;;;;;9.77;2.80;;;31.60;1.00;;;;;;5041237;28;20485;-80
2022/07/29 11:37:31;;;;;;;5.50;3.07;;;31.60;1.00;;;;;;5057044;28;20433;-77
2022/07/29 11:39:58;;;;;;;4.67;2.80;;;31.50;1.00;;;;;;5053738;28;20410;-77
2022/07/29 11:42:24;;;;;;;10.63;2.77;;;31.50;1.00;;;;;;5058948;28;20417;-77
2022/07/29 11:45:08;;;;;;;8.20;3.00;;;31.20;1.00;;;;;;5045715;28;20513;-74
2022/07/29 11:47:54;;;;;;;8.93;2.87;;;31.30;1.00;;;;;;5039251;28;20263;-76
2022/07/29 11:50:42;;;;;;;4.30;3.07;;;31.40;1.00;;;;;;5036171;28;20833;-82
2022/07/29 11:53:14;;;;;;;3.57;2.70;;;31.70;1.00;;;;;;5037296;28;21631;-82
2022/07/29 11:55:43;;;;;;;3.03;2.73;;;31.80;1.00;;;;;;5054543;28;20456;-83
2022/07/29 11:58:13;;;;;;;7.27;2.90;;;32.00;1.00;;;;;;5046598;28;20914;-82
2022/07/29 12:00:41;;;;;;;7.30;3.23;;;32.10;1.00;;;;;;5039845;28;20416;-76
2022/07/29 12:03:09;;;;;;;3.13;2.70;;;32.40;1.00;;;;;;5048572;28;20788;-78
2022/07/29 12:05:38;;;;;;;8.57;2.70;;;32.60;1.00;;;;;;5052368;28;20737;-78
2022/07/29 12:08:18;;;;;;;18.50;3.10;;;32.70;1.00;;;;;;5046589;28;20988;-79
2022/07/29 12:10:55;;;;;;;3.80;2.90;;;32.80;1.00;;;;;;5052752;28;20486;-77
2022/07/29 12:13:40;;;;;;;4.23;2.90;;;32.70;1.00;;;;;;5043187;28;20821;-77
2022/07/29 12:16:07;;;;;;;3.73;2.70;;;32.70;1.00;;;;;;5036427;28;20395;-77
2022/07/29 12:18:32;;;;;;;6.77;2.97;;;32.80;1.00;;;;;;5055196;28;20421;-74
2022/07/29 12:21:03;;;;;;;4.87;3.10;;;32.80;1.00;;;;;;5048695;28;20769;-74
2022/07/29 12:23:32;;;;;;;3.07;2.87;;;32.90;1.00;;;;;;5045430;28;20181;-74
2022/07/29 12:25:58;;;;;;;7.00;3.03;;;32.80;1.00;;;;;;5046652;28;20789;-74
2022/07/29 12:28:25;;;;;;;4.30;3.00;;;32.70;1.00;;;;;;5042657;28;20923;-74
2022/07/29 12:30:51;;;;;;;3.60;2.60;;;32.70;1.00;;;;;;5047156;28;20473;-73
2022/07/29 12:33:23;;;;;;;3.77;2.77;;;32.60;1.00;;;;;;5053827;28;20442;-73
2022/07/29 12:35:58;;;;;;;9.10;3.10;;;32.80;1.00;;;;;;5049314;28;20510;-73
2022/07/29 12:38:24;;;;;;;3.93;2.70;;;32.90;1.00;;;;;;5055054;28;20472;-73
2022/07/29 12:40:52;;;;;;;8.50;2.70;;;32.90;1.00;;;;;;5048045;28;20441;-73
2022/07/29 12:43:20;;;;;;;3.03;2.70;;;33.00;1.00;;;;;;5052288;28;20423;-73
2022/07/29 12:45:59;;;;;;;4.50;2.80;;;33.10;1.00;;;;;;5050161;28;20926;-71
2022/07/29 12:48:39;;;;;;;8.80;2.77;;;33.10;1.00;;;;;;5050843;28;20477;-70
2022/07/29 12:51:06;;;;;;;12.37;2.70;;;33.30;1.00;;;;;;5042695;28;20541;-69
2022/07/29 12:53:32;;;;;;;3.30;3.00;;;33.10;1.00;;;;;;5052912;28;20415;-70
2022/07/29 12:56:02;;;;;;;7.23;3.20;;;33.30;1.00;;;;;;5054612;28;20497;-70
2022/07/29 12:58:32;;;;;;;9.37;2.80;;;33.50;1.00;;;;;;5043370;28;20473;-70
2022/07/29 13:01:10;;;;;;;4.43;3.00;;;33.80;1.00;;;;;;5035486;28;20426;-75
2022/07/29 13:04:04;;;;;;;5.63;2.90;;;33.80;1.00;;;;;;5054800;28;20426;-75
2022/07/29 13:06:45;;;;;;;5.03;3.27;;;33.90;1.00;;;;;;5051805;28;20456;-74
2022/07/29 13:09:13;;;;;;;4.20;3.07;;;33.70;1.00;;;;;;5041768;28;20429;-74
2022/07/29 13:11:47;;;;;;;5.90;2.53;;;33.70;1.00;;;;;;5044734;28;20455;-74
2022/07/29 13:14:33;;;;;;;6.70;2.80;;;33.50;1.00;;;;;;5050676;28;20414;-74
2022/07/29 13:17:13;;;;;;;3.73;3.10;;;33.40;1.00;;;;;;5054435;28;20472;-74
2022/07/29 13:19:44;;;;;;;4.07;2.73;;;33.40;1.00;;;;;;5053979;28;20501;-74
2022/07/29 13:22:15;;;;;;;3.60;3.13;;;33.60;1.00;;;;;;5041485;28;20414;-75
2022/07/29 13:24:58;;;;;;;2.97;2.50;;;33.70;1.00;;;;;;5037951;28;20423;-75
2022/07/29 13:27:31;;;;;;;5.13;2.63;;;33.70;1.00;;;;;;5047287;28;20445;-75
2022/07/29 13:29:59;;;;;;;5.17;2.93;;;33.90;1.00;;;;;;5055345;28;20414;-75
2022/07/29 13:32:27;;;;;;;6.50;2.83;;;33.90;1.00;;;;;;5049524;28;20473;-70
2022/07/29 13:34:53;;;;;;;3.67;2.47;;;33.80;1.00;;;;;;5051972;28;20437;-70
2022/07/29 13:37:19;;;;;;;4.70;2.63;;;33.60;1.00;;;;;;5044536;28;20423;-71
2022/07/29 13:39:47;;;;;;;2.97;2.77;;;33.30;1.00;;;;;;5045238;28;20437;-70